Time;durP1;ratioP1;P1;durP2;ratioP2;P2;SDS_P1;SDS_P2;PMS_P1;PMS_P2;Temp;Humidity;BMP_temperature;BMP_pressure;BME280_temperature;BME280_humidity;BME280_pressure;Samples;Min_cycle;Max_cycle;Signal;HPM_P1;HPM_P2
2023/03/19 00:00:46;;;;;;;26.25;14.65;;;14.10;71.90;;;;;;5074764;28;20151;-80
2023/03/19 00:03:11;;;;;;;33.95;16.33;;;14.10;72.10;;;;;;5113135;22;20059;-79
2023/03/19 00:05:37;;;;;;;28.25;16.02;;;14.00;72.30;;;;;;5115231;28;20096;-81
2023/03/19 00:08:03;;;;;;;23.65;15.63;;;14.00;72.10;;;;;;5115481;28;20023;-79
2023/03/19 00:10:28;;;;;;;25.08;14.68;;;14.00;72.70;;;;;;5115592;28;20046;-80
2023/03/19 00:12:54;;;;;;;30.95;16.30;;;14.00;72.60;;;;;;5098512;28;20047;-80
2023/03/19 00:15:20;;;;;;;29.48;16.15;;;13.90;73.20;;;;;;5117176;28;20491;-81
2023/03/19 00:17:46;;;;;;;25.27;15.50;;;13.90;72.80;;;;;;5116352;28;20043;-81
2023/03/19 00:20:13;;;;;;;24.38;16.13;;;13.90;73.00;;;;;;5114336;28;20068;-81
2023/03/19 00:22:39;;;;;;;27.23;15.68;;;13.80;73.30;;;;;;5115045;28;20027;-80
2023/03/19 00:25:06;;;;;;;23.20;15.43;;;13.70;73.50;;;;;;5114682;28;20038;-81
2023/03/19 00:27:32;;;;;;;28.25;15.60;;;13.70;73.40;;;;;;5114683;28;20056;-80
2023/03/19 00:29:58;;;;;;;24.45;15.68;;;13.70;73.60;;;;;;5114491;28;20508;-80
2023/03/19 00:32:24;;;;;;;29.00;16.25;;;13.70;73.60;;;;;;5114509;28;20040;-80
2023/03/19 00:34:50;;;;;;;27.65;16.40;;;13.70;73.50;;;;;;5114957;28;20035;-80
2023/03/19 00:37:16;;;;;;;23.60;15.93;;;13.70;73.50;;;;;;5114664;28;20051;-79
2023/03/19 00:39:42;;;;;;;29.20;15.13;;;13.70;73.70;;;;;;5113844;28;20093;-80
2023/03/19 00:42:08;;;;;;;27.88;16.55;;;13.70;73.80;;;;;;5123798;28;20051;-79
2023/03/19 00:44:33;;;;;;;27.30;14.82;;;13.70;73.80;;;;;;5131416;28;20077;-79
2023/03/19 00:46:59;;;;;;;28.35;14.55;;;13.70;73.90;;;;;;5125267;28;20038;-80
2023/03/19 00:49:25;;;;;;;33.45;14.25;;;13.70;73.80;;;;;;5115251;28;20062;-81
2023/03/19 00:51:50;;;;;;;22.17;13.20;;;13.70;73.70;;;;;;5115014;28;20122;-80
2023/03/19 00:54:16;;;;;;;28.58;14.90;;;13.70;73.80;;;;;;5134777;28;20039;-79
2023/03/19 00:56:42;;;;;;;21.83;14.02;;;13.70;73.80;;;;;;5117416;28;20406;-80
2023/03/19 00:59:08;;;;;;;29.48;15.63;;;13.80;73.80;;;;;;5115029;28;20031;-80
2023/03/19 01:01:33;;;;;;;25.80;13.95;;;13.80;73.80;;;;;;5119026;27;20113;-79
2023/03/19 01:03:59;;;;;;;21.35;13.50;;;13.80;73.90;;;;;;5122433;27;20032;-80
2023/03/19 01:06:25;;;;;;;25.27;14.07;;;13.80;73.80;;;;;;5127032;28;20053;-79
2023/03/19 01:08:51;;;;;;;22.75;14.30;;;13.80;73.90;;;;;;5124707;28;20363;-80
2023/03/19 01:11:17;;;;;;;25.35;14.95;;;13.80;73.90;;;;;;5095561;28;20054;-79
2023/03/19 01:13:43;;;;;;;21.67;13.38;;;13.70;74.00;;;;;;5095345;28;20112;-78
2023/03/19 01:16:09;;;;;;;23.70;13.68;;;13.80;74.20;;;;;;5113874;28;20527;-79
2023/03/19 01:18:35;;;;;;;23.88;13.43;;;13.80;74.20;;;;;;5113786;28;20032;-78
2023/03/19 01:21:01;;;;;;;25.23;14.18;;;13.70;74.30;;;;;;5114729;27;20030;-80
2023/03/19 01:23:27;;;;;;;23.70;14.15;;;13.80;74.40;;;;;;5133766;27;20035;-79
2023/03/19 01:25:53;;;;;;;22.30;14.05;;;13.80;74.50;;;;;;5134009;27;20030;-79
2023/03/19 01:28:19;;;;;;;24.13;15.00;;;13.80;74.40;;;;;;5134361;27;20036;-78
2023/03/19 01:30:45;;;;;;;26.05;14.88;;;13.80;74.30;;;;;;5133248;27;20114;-79
2023/03/19 01:33:11;;;;;;;33.75;15.35;;;13.80;74.30;;;;;;5133770;27;20216;-80
2023/03/19 01:35:36;;;;;;;29.13;15.43;;;13.80;74.30;;;;;;5115270;27;20452;-79
2023/03/19 01:38:02;;;;;;;25.55;15.43;;;13.80;74.40;;;;;;5133841;27;20112;-79
2023/03/19 01:40:28;;;;;;;28.70;15.88;;;13.80;74.40;;;;;;5133871;27;20042;-79
2023/03/19 01:43:13;;;;;;;25.42;14.63;;;13.80;74.40;;;;;;5133552;27;20574;-79
2023/03/19 01:45:41;;;;;;;25.75;14.75;;;13.80;74.20;;;;;;5100341;28;20028;-80
2023/03/19 01:48:23;;;;;;;23.35;14.38;;;13.80;74.50;;;;;;5114488;28;20032;-78
2023/03/19 01:50:49;;;;;;;22.80;14.88;;;13.80;74.30;;;;;;5113973;28;20186;-78
2023/03/19 01:53:17;;;;;;;27.55;14.35;;;13.70;74.40;;;;;;5112749;28;20074;-80
2023/03/19 01:55:44;;;;;;;24.45;13.85;;;13.70;74.50;;;;;;5112666;28;20028;-79
2023/03/19 01:58:10;;;;;;;27.63;14.88;;;13.70;74.60;;;;;;5112802;28;20603;-80
2023/03/19 02:00:37;;;;;;;26.52;14.02;;;13.70;74.60;;;;;;5094554;28;20110;-80
2023/03/19 02:03:04;;;;;;;27.58;14.95;;;13.70;74.50;;;;;;5094283;28;20522;-80
2023/03/19 02:05:30;;;;;;;24.35;13.93;;;13.70;74.60;;;;;;5112390;28;20032;-78
2023/03/19 02:08:01;;;;;;;26.80;14.65;;;13.70;74.70;;;;;;5113210;28;20036;-78
2023/03/19 02:10:28;;;;;;;23.42;13.70;;;13.70;74.60;;;;;;5094154;28;20479;-78
2023/03/19 02:12:54;;;;;;;23.27;13.35;;;13.70;74.70;;;;;;5112278;28;20043;-79
2023/03/19 02:15:20;;;;;;;24.75;13.85;;;13.70;74.60;;;;;;5112201;28;20092;-78
2023/03/19 02:17:46;;;;;;;22.77;13.23;;;13.70;74.70;;;;;;5112213;28;20034;-79
2023/03/19 02:20:15;;;;;;;26.50;13.60;;;13.70;74.70;;;;;;5112576;28;20116;-78
2023/03/19 02:22:49;;;;;;;30.85;14.52;;;13.70;74.40;;;;;;5112437;28;20036;-78
2023/03/19 02:25:31;;;;;;;41.70;15.02;;;13.70;74.50;;;;;;5112413;28;20054;-79
2023/03/19 02:27:58;;;;;;;20.25;12.82;;;13.70;74.50;;;;;;5094354;28;20389;-79
2023/03/19 02:30:27;;;;;;;21.92;12.88;;;13.70;74.50;;;;;;5095149;28;20403;-79
2023/03/19 02:32:53;;;;;;;21.77;13.32;;;13.70;74.50;;;;;;5114261;28;20054;-79
2023/03/19 02:35:19;;;;;;;21.05;14.60;;;13.70;74.50;;;;;;5113890;28;20036;-79
2023/03/19 02:37:45;;;;;;;27.20;15.48;;;13.60;74.50;;;;;;5116273;28;20027;-78
2023/03/19 02:40:29;;;;;;;23.38;14.82;;;13.60;74.50;;;;;;5112352;28;20047;-79
2023/03/19 02:42:56;;;;;;;23.75;13.63;;;13.60;74.70;;;;;;5095343;28;20436;-79
2023/03/19 02:45:26;;;;;;;25.67;13.65;;;13.60;74.70;;;;;;5116227;28;20031;-78
2023/03/19 02:47:52;;;;;;;25.58;13.65;;;13.60;74.80;;;;;;5115648;28;20395;-79
2023/03/19 02:50:18;;;;;;;25.92;13.73;;;13.50;74.70;;;;;;5115993;28;20030;-78
2023/03/19 02:52:43;;;;;;;25.88;13.20;;;13.60;74.70;;;;;;5115516;28;20115;-79
2023/03/19 02:55:09;;;;;;;25.83;15.48;;;13.60;74.80;;;;;;5115666;28;20019;-79
2023/03/19 02:57:35;;;;;;;25.77;13.70;;;13.50;74.70;;;;;;5115949;27;20035;-79
2023/03/19 03:00:01;;;;;;;27.75;14.40;;;13.50;74.70;;;;;;5115851;28;20043;-79
2023/03/19 03:02:27;;;;;;;24.05;14.15;;;13.50;74.70;;;;;;5125602;27;20054;-78
2023/03/19 03:04:52;;;;;;;25.08;13.73;;;13.50;74.70;;;;;;5136261;27;20026;-79
2023/03/19 03:07:18;;;;;;;21.05;12.98;;;13.50;74.70;;;;;;5136281;27;20364;-80
2023/03/19 03:09:44;;;;;;;26.42;13.82;;;13.50;74.60;;;;;;5136028;27;20110;-79
2023/03/19 03:12:09;;;;;;;21.10;12.90;;;13.50;74.60;;;;;;5135970;27;20144;-80
2023/03/19 03:14:35;;;;;;;22.75;13.77;;;13.50;74.60;;;;;;5136131;27;20038;-79
2023/03/19 03:17:01;;;;;;;26.73;13.90;;;13.50;74.50;;;;;;5136155;27;20493;-79
2023/03/19 03:19:27;;;;;;;22.65;13.43;;;13.50;74.50;;;;;;5137150;27;20475;-79
2023/03/19 03:21:52;;;;;;;22.05;13.55;;;13.40;74.60;;;;;;5137270;27;20440;-80
2023/03/19 03:24:18;;;;;;;23.25;13.20;;;13.40;74.70;;;;;;5117980;27;20542;-79
2023/03/19 03:26:44;;;;;;;19.92;12.10;;;13.40;74.80;;;;;;5136125;27;20031;-80
2023/03/19 03:29:10;;;;;;;22.67;12.82;;;13.40;74.80;;;;;;5135884;27;20114;-79
2023/03/19 03:31:36;;;;;;;20.42;11.90;;;13.40;74.70;;;;;;5135641;27;20216;-80
2023/03/19 03:34:02;;;;;;;20.48;11.02;;;13.30;74.80;;;;;;5135887;27;20043;-79
2023/03/19 03:36:28;;;;;;;17.42;10.55;;;13.30;74.80;;;;;;5135645;27;20421;-80
2023/03/19 03:38:54;;;;;;;18.88;11.00;;;13.30;74.90;;;;;;5135832;27;20027;-79
2023/03/19 03:41:20;;;;;;;17.48;10.43;;;13.20;74.70;;;;;;5135747;27;20027;-79
2023/03/19 03:43:46;;;;;;;19.52;10.05;;;13.20;74.70;;;;;;5135297;27;20029;-79
2023/03/19 03:46:12;;;;;;;20.10;11.18;;;13.20;75.00;;;;;;5135470;27;20550;-78
2023/03/19 03:48:38;;;;;;;17.67;9.25;;;13.10;74.80;;;;;;5135297;27;20043;-79
2023/03/19 03:51:04;;;;;;;17.55;11.00;;;13.10;74.80;;;;;;5135737;27;20084;-80
2023/03/19 03:53:30;;;;;;;16.67;9.68;;;13.10;74.80;;;;;;5134867;27;20035;-78
2023/03/19 03:55:55;;;;;;;15.15;9.02;;;13.00;74.80;;;;;;5135433;27;20106;-79
2023/03/19 03:58:22;;;;;;;17.63;9.80;;;13.10;74.90;;;;;;5135242;27;20027;-80
2023/03/19 04:00:48;;;;;;;22.15;9.63;;;13.10;74.70;;;;;;5135317;27;20363;-80
2023/03/19 04:03:14;;;;;;;20.70;9.52;;;13.10;74.80;;;;;;5135153;27;20046;-79
2023/03/19 04:05:40;;;;;;;21.50;9.40;;;13.10;74.70;;;;;;5135503;27;20038;-79
2023/03/19 04:08:07;;;;;;;16.85;8.68;;;13.20;74.60;;;;;;5136446;27;20038;-78
2023/03/19 04:10:34;;;;;;;15.98;8.95;;;13.20;74.50;;;;;;5135362;27;20472;-79
2023/03/19 04:13:00;;;;;;;18.38;8.60;;;13.20;74.50;;;;;;5134948;27;20038;-79
2023/03/19 04:15:26;;;;;;;16.85;8.63;;;13.20;74.40;;;;;;5116363;27;20058;-81
2023/03/19 04:17:52;;;;;;;22.95;8.57;;;13.20;74.50;;;;;;5135136;27;20113;-80
2023/03/19 04:20:18;;;;;;;18.10;8.45;;;13.20;74.40;;;;;;5135005;27;20085;-80
2023/03/19 04:22:44;;;;;;;17.50;9.05;;;13.20;74.40;;;;;;5134566;27;20035;-80
2023/03/19 04:25:10;;;;;;;18.58;8.77;;;13.20;74.40;;;;;;5135057;27;20060;-80
2023/03/19 04:27:36;;;;;;;15.35;8.20;;;13.20;74.40;;;;;;5134854;27;20027;-80
2023/03/19 04:30:03;;;;;;;13.13;7.50;;;13.20;74.40;;;;;;5135284;27;20148;-79
2023/03/19 04:32:28;;;;;;;16.10;7.55;;;13.30;74.40;;;;;;5134327;27;20084;-80
2023/03/19 04:34:55;;;;;;;15.48;7.80;;;13.30;74.30;;;;;;5134908;27;20027;-79
2023/03/19 04:37:20;;;;;;;20.90;7.80;;;13.30;74.30;;;;;;5134534;27;20035;-79
2023/03/19 04:39:46;;;;;;;19.85;7.63;;;13.30;74.20;;;;;;5115710;27;20079;-80
2023/03/19 04:42:12;;;;;;;13.90;7.82;;;13.20;74.10;;;;;;5134239;27;20394;-79
2023/03/19 04:44:37;;;;;;;18.08;6.47;;;13.20;74.10;;;;;;5134447;27;20436;-79
2023/03/19 04:47:04;;;;;;;19.02;7.57;;;13.20;74.20;;;;;;5134949;27;20034;-80
2023/03/19 04:49:32;;;;;;;14.00;6.75;;;13.20;74.90;;;;;;5134261;27;20106;-80
2023/03/19 04:51:58;;;;;;;15.30;7.20;;;13.20;74.20;;;;;;5115755;27;20437;-80
2023/03/19 04:54:24;;;;;;;13.73;6.68;;;13.20;74.20;;;;;;5134955;27;20035;-79
2023/03/19 04:56:51;;;;;;;16.25;6.97;;;13.10;74.00;;;;;;5135936;27;20035;-80
2023/03/19 04:59:16;;;;;;;17.60;6.60;;;13.10;74.20;;;;;;5133839;27;20049;-81
2023/03/19 05:01:42;;;;;;;12.82;6.70;;;13.10;74.30;;;;;;5133741;27;20043;-80
2023/03/19 05:04:08;;;;;;;12.82;6.68;;;13.10;74.30;;;;;;5115178;27;20042;-79
2023/03/19 05:06:35;;;;;;;13.60;6.47;;;13.00;74.00;;;;;;5132643;27;20027;-80
2023/03/19 05:09:01;;;;;;;14.70;6.18;;;13.10;74.10;;;;;;5133349;27;20023;-80
2023/03/19 05:11:27;;;;;;;15.25;6.78;;;13.00;74.10;;;;;;5133652;27;20036;-80
2023/03/19 05:13:52;;;;;;;17.08;6.55;;;12.90;74.00;;;;;;5134126;27;20148;-79
2023/03/19 05:16:19;;;;;;;13.45;6.43;;;12.90;73.90;;;;;;5134037;27;20023;-80
2023/03/19 05:18:44;;;;;;;18.77;6.15;;;12.90;74.20;;;;;;5133621;27;20039;-81
2023/03/19 05:21:11;;;;;;;14.35;6.05;;;12.90;73.90;;;;;;5133744;27;20031;-80
2023/03/19 05:23:37;;;;;;;14.05;6.07;;;12.90;73.90;;;;;;5133608;27;20394;-80
2023/03/19 05:26:03;;;;;;;14.43;6.63;;;12.90;73.80;;;;;;5136066;27;20575;-79
2023/03/19 05:28:29;;;;;;;13.25;6.35;;;12.90;73.80;;;;;;5137019;27;20039;-79
2023/03/19 05:30:55;;;;;;;10.65;5.90;;;12.90;73.60;;;;;;5139172;27;20023;-79
2023/03/19 05:33:21;;;;;;;11.55;5.50;;;12.90;73.40;;;;;;5137141;27;20043;-78
2023/03/19 05:35:47;;;;;;;16.77;6.30;;;12.90;73.50;;;;;;5137567;27;20110;-79
2023/03/19 05:38:14;;;;;;;15.52;5.65;;;12.90;73.40;;;;;;5136763;27;20070;-80
2023/03/19 05:40:42;;;;;;;13.98;5.53;;;12.90;73.40;;;;;;5115598;27;20445;-78
2023/03/19 05:43:09;;;;;;;14.10;5.40;;;12.90;73.40;;;;;;5135428;27;20038;-79
2023/03/19 05:45:35;;;;;;;18.58;6.05;;;12.90;73.40;;;;;;5134949;27;20042;-78
2023/03/19 05:48:02;;;;;;;14.02;5.22;;;12.90;73.50;;;;;;5134683;27;20102;-80
2023/03/19 05:50:28;;;;;;;13.85;5.03;;;13.00;73.30;;;;;;5133785;27;20430;-80
2023/03/19 05:52:54;;;;;;;13.25;5.90;;;13.00;73.10;;;;;;5133632;27;20414;-80
2023/03/19 05:55:19;;;;;;;10.30;4.70;;;13.00;73.00;;;;;;5134017;28;20027;-79
2023/03/19 05:57:45;;;;;;;19.30;6.15;;;13.10;73.20;;;;;;5133101;28;20039;-78
2023/03/19 06:00:12;;;;;;;12.02;5.22;;;13.10;73.10;;;;;;5133612;28;20031;-80
